Time;durP1;ratioP1;P1;durP2;ratioP2;P2;SDS_P1;SDS_P2;PMS_P1;PMS_P2;Temp;Humidity;BMP_temperature;BMP_pressure;BME280_temperature;BME280_humidity;BME280_pressure;Samples;Min_cycle;Max_cycle;Signal;HPM_P1;HPM_P2
2023/03/27 00:00:57;;;;;;;16.80;2.55;;;;;;;2.89;87.62;101063.97;5014958;28;20033;-72
2023/03/27 00:03:24;;;;;;;14.07;1.95;;;;;;;2.80;87.59;101072.25;5004462;28;20475;-72
2023/03/27 00:06:00;;;;;;;11.25;1.50;;;;;;;2.84;87.90;101070.31;5021452;28;20041;-72
2023/03/27 00:08:27;;;;;;;15.52;2.15;;;;;;;2.82;88.02;101085.78;5021002;28;20046;-72
2023/03/27 00:10:54;;;;;;;16.15;2.40;;;;;;;2.74;88.35;101082.91;5019122;28;20144;-72
2023/03/27 00:13:19;;;;;;;11.15;1.63;;;;;;;2.65;89.03;101086.06;5020937;28;20072;-72
2023/03/27 00:15:45;;;;;;;11.50;2.65;;;;;;;2.60;89.41;101082.94;5007020;28;20396;-72
2023/03/27 00:18:12;;;;;;;18.08;2.10;;;;;;;2.63;90.22;101087.91;5035265;28;20742;-72
2023/03/27 00:20:38;;;;;;;12.35;2.25;;;;;;;2.62;89.73;101102.44;5003433;28;20037;-72
2023/03/27 00:23:05;;;;;;;16.15;2.42;;;;;;;2.66;90.25;101106.44;5022633;28;20167;-72
2023/03/27 00:25:32;;;;;;;12.52;2.67;;;;;;;2.68;89.77;101111.47;5016386;28;20145;-72
2023/03/27 00:27:58;;;;;;;10.30;2.10;;;;;;;2.67;89.68;101109.81;5019268;28;20033;-72
2023/03/27 00:30:27;;;;;;;13.10;2.33;;;;;;;2.69;89.77;101119.06;4995389;28;20164;-72
2023/03/27 00:32:56;;;;;;;16.70;2.17;;;;;;;2.56;89.64;101123.28;5013228;28;20033;-72
2023/03/27 00:35:27;;;;;;;14.48;2.20;;;;;;;2.66;89.57;101126.13;5025458;28;20041;-72
2023/03/27 00:37:53;;;;;;;12.32;1.77;;;;;;;2.60;89.68;101132.44;5016360;28;20388;-72
2023/03/27 00:40:18;;;;;;;16.27;2.03;;;;;;;2.56;90.20;101133.53;4999231;28;20157;-72
2023/03/27 00:42:46;;;;;;;10.32;1.80;;;;;;;2.62;90.13;101138.28;5026729;28;20112;-72
2023/03/27 00:45:19;;;;;;;16.92;3.55;;;;;;;2.48;90.23;101136.56;4998420;28;20034;-72
2023/03/27 00:47:48;;;;;;;12.18;2.08;;;;;;;2.39;90.76;101131.19;5016807;28;20048;-72
2023/03/27 00:50:19;;;;;;;17.13;3.22;;;;;;;2.43;90.93;101130.09;4995057;28;20044;-72
2023/03/27 00:52:50;;;;;;;11.88;1.90;;;;;;;2.34;91.38;101134.06;5013161;28;20039;-72
2023/03/27 00:55:19;;;;;;;14.50;1.92;;;;;;;2.33;91.19;101133.22;5014004;28;20041;-72
2023/03/27 00:57:52;;;;;;;13.65;1.92;;;;;;;2.32;91.00;101152.06;5028102;28;20026;-72
2023/03/27 01:00:18;;;;;;;18.65;2.22;;;;;;;2.26;91.21;101154.16;5010949;28;20037;-72
2023/03/27 01:02:48;;;;;;;15.15;2.22;;;;;;;2.22;90.68;101155.28;5018600;28;20030;-72
2023/03/27 01:05:15;;;;;;;22.20;3.10;;;;;;;2.19;91.61;101168.28;5018580;28;20507;-72
2023/03/27 01:07:43;;;;;;;19.15;3.45;;;;;;;2.20;91.18;101169.91;5020670;28;20036;-72
2023/03/27 01:10:10;;;;;;;16.80;2.22;;;;;;;2.19;91.36;101170.81;5019099;28;20041;-72
2023/03/27 01:13:01;;;;;;;11.52;1.85;;;;;;;2.19;91.38;101175.94;5018970;28;20040;-72
2023/03/27 01:16:05;;;;;;;15.45;3.25;;;;;;;2.22;91.18;101178.31;5018436;28;20420;-72
2023/03/27 01:19:20;;;;;;;15.80;2.08;;;;;;;2.13;90.71;101185.63;4971051;28;20488;-72
2023/03/27 01:22:10;;;;;;;14.95;2.05;;;;;;;2.06;91.21;101189.47;5029149;28;20573;-72
2023/03/27 01:25:14;;;;;;;11.48;1.77;;;;;;;2.09;91.88;101185.88;5008774;28;21533;-72
2023/03/27 01:28:01;;;;;;;17.13;2.13;;;;;;;2.06;91.42;101183.53;4989427;28;20048;-72
2023/03/27 01:30:55;;;;;;;14.05;1.75;;;;;;;2.06;91.57;101186.09;5018102;28;20406;-72
2023/03/27 01:33:39;;;;;;;19.23;2.17;;;;;;;1.95;92.19;101190.09;5013223;28;20064;-72
2023/03/27 01:36:17;;;;;;;8.85;1.50;;;;;;;1.89;92.69;101192.19;4972248;28;20041;-72
2023/03/27 01:38:54;;;;;;;19.50;2.08;;;;;;;1.93;92.78;101196.22;5032986;28;20562;-72
2023/03/27 01:41:26;;;;;;;10.80;1.58;;;;;;;1.95;92.49;101202.06;5012602;28;20045;-72
2023/03/27 01:44:07;;;;;;;12.25;2.45;;;;;;;1.97;92.27;101207.91;5022099;28;20032;-72
2023/03/27 01:46:45;;;;;;;21.83;2.20;;;;;;;1.81;92.51;101213.09;5035956;28;20447;-72
2023/03/27 01:49:16;;;;;;;14.68;2.35;;;;;;;1.84;92.38;101218.03;5019790;28;20439;-72
2023/03/27 01:51:51;;;;;;;17.25;1.77;;;;;;;1.86;92.43;101205.97;5019382;28;20033;-72
2023/03/27 01:54:27;;;;;;;10.23;1.70;;;;;;;1.86;92.38;101218.75;5020325;28;20618;-72
2023/03/27 01:57:01;;;;;;;13.50;1.80;;;;;;;1.93;92.81;101221.78;5009303;28;20037;-72
2023/03/27 01:59:30;;;;;;;14.70;1.80;;;;;;;1.76;92.86;101222.78;5019948;28;20050;-72
2023/03/27 02:02:08;;;;;;;18.20;1.80;;;;;;;1.69;93.80;101221.47;5006956;28;20669;-72
2023/03/27 02:04:45;;;;;;;16.95;2.10;;;;;;;1.62;93.94;101221.03;5035235;28;20082;-72
2023/03/27 02:07:17;;;;;;;12.07;2.78;;;;;;;1.59;94.26;101233.16;5019977;28;20049;-72
2023/03/27 02:09:57;;;;;;;16.98;1.77;;;;;;;1.71;94.17;101243.50;5021518;28;20099;-73
2023/03/27 02:12:30;;;;;;;13.55;1.55;;;;;;;1.66;93.79;101247.25;5039059;28;20033;-72
2023/03/27 02:15:00;;;;;;;;;;;;;;;1.56;94.25;101246.91;5004004;28;20393;-72
2023/03/27 02:17:28;;;;;;;9.27;1.33;;;;;;;1.51;94.30;101249.75;5033813;28;19913;-72
2023/03/27 02:20:08;;;;;;;20.80;2.17;;;;;;;1.46;95.03;101259.38;5020683;28;20044;-72
2023/03/27 02:22:34;;;;;;;13.45;2.08;;;;;;;1.61;94.46;101262.00;5016238;28;20399;-72
2023/03/27 02:25:00;;;;;;;18.20;2.08;;;;;;;1.59;94.62;101267.19;5018838;28;20029;-72
2023/03/27 02:27:42;;;;;;;23.67;2.75;;;;;;;1.42;94.94;101272.44;5020968;28;20032;-72
2023/03/27 02:30:28;;;;;;;13.68;1.55;;;;;;;1.37;95.46;101272.69;5033356;28;20041;-72
2023/03/27 02:33:15;;;;;;;9.82;1.83;;;;;;;1.38;95.89;101270.97;5038713;28;20124;-72
2023/03/27 02:36:05;;;;;;;12.15;2.10;;;;;;;1.32;95.92;101275.50;5021106;28;20612;-72
2023/03/27 02:38:43;;;;;;;10.20;1.90;;;;;;;1.26;96.35;101278.41;5012346;28;20052;-72
2023/03/27 02:41:28;;;;;;;16.60;2.78;;;;;;;1.20;96.63;101288.94;5035071;28;20507;-72
2023/03/27 02:44:39;;;;;;;16.27;2.88;;;;;;;1.16;97.10;101287.47;5022421;28;20079;-72
2023/03/27 02:47:10;;;;;;;14.88;1.95;;;;;;;1.12;97.33;101284.25;5016017;28;20435;-72
2023/03/27 02:50:10;;;;;;;5.68;1.92;;;;;;;1.07;97.47;101285.41;5015178;28;20033;-72
2023/03/27 02:52:50;;;;;;;7.68;1.80;;;;;;;1.04;97.69;101298.34;5022305;28;20073;-71
2023/03/27 02:55:34;;;;;;;6.30;2.00;;;;;;;1.00;97.96;101292.56;5033340;28;20052;-72
2023/03/27 02:58:05;;;;;;;10.57;2.47;;;;;;;0.99;98.19;101306.25;5036691;28;20037;-72
2023/03/27 03:00:40;;;;;;;5.30;1.38;;;;;;;0.97;98.41;101305.50;4998570;28;20527;-72
2023/03/27 03:03:56;;;;;;;7.97;2.05;;;;;;;0.94;98.79;101305.66;4984743;28;20470;-72
2023/03/27 03:06:40;;;;;;;6.05;1.45;;;;;;;0.92;98.74;101313.41;5018804;28;20425;-72
2023/03/27 03:09:08;;;;;;;14.30;1.90;;;;;;;0.88;98.37;101318.75;5022483;28;20060;-72
2023/03/27 03:11:36;;;;;;;7.15;1.45;;;;;;;0.85;98.99;101319.75;5001431;28;20649;-72
2023/03/27 03:14:03;;;;;;;4.63;1.27;;;;;;;0.82;98.79;101322.44;5020686;28;20033;-72
2023/03/27 03:16:29;;;;;;;13.15;1.77;;;;;;;0.81;99.05;101327.63;5005790;28;20042;-72
2023/03/27 03:18:55;;;;;;;6.75;1.70;;;;;;;0.77;99.27;101335.47;5006138;28;20037;-71
2023/03/27 03:21:21;;;;;;;8.65;1.80;;;;;;;0.75;99.42;101334.72;5022367;28;20040;-72
2023/03/27 03:23:47;;;;;;;15.45;2.50;;;;;;;0.75;99.73;101341.53;5038012;28;20558;-72
2023/03/27 03:26:15;;;;;;;10.25;1.85;;;;;;;0.74;99.64;101345.00;4984051;28;20042;-71
2023/03/27 03:28:46;;;;;;;12.73;1.85;;;;;;;0.75;99.89;101347.50;5018023;28;20029;-72
2023/03/27 03:31:13;;;;;;;14.27;2.60;;;;;;;0.76;99.61;101363.63;5033629;28;20045;-71
2023/03/27 03:33:39;;;;;;;17.38;2.25;;;;;;;0.75;99.87;101367.06;5033562;28;20535;-71
2023/03/27 03:36:05;;;;;;;12.98;1.92;;;;;;;0.68;99.65;101363.19;5014888;28;20053;-72
2023/03/27 03:38:34;;;;;;;14.32;2.20;;;;;;;0.72;100.00;101365.50;5021223;28;20037;-71
2023/03/27 03:41:02;;;;;;;12.23;1.95;;;;;;;0.65;100.00;101376.13;5020737;28;20049;-71
2023/03/27 03:43:30;;;;;;;14.10;2.15;;;;;;;0.60;100.00;101373.78;5005690;28;20034;-71
2023/03/27 03:45:56;;;;;;;14.40;2.10;;;;;;;0.57;100.00;101372.22;5018451;28;20034;-71
2023/03/27 03:48:22;;;;;;;11.85;2.22;;;;;;;0.54;100.00;101374.09;5019645;28;20184;-72
2023/03/27 03:50:49;;;;;;;6.05;1.80;;;;;;;0.53;100.00;101373.28;5028927;28;20033;-72
2023/03/27 03:53:17;;;;;;;15.57;2.55;;;;;;;0.52;100.00;101386.94;5035280;28;20033;-72
2023/03/27 03:55:44;;;;;;;18.08;2.33;;;;;;;0.49;100.00;101383.69;5018142;28;20041;-71
2023/03/27 03:58:11;;;;;;;11.80;2.85;;;;;;;0.47;100.00;101391.47;5017493;28;20571;-72
2023/03/27 04:00:38;;;;;;;11.07;1.77;;;;;;;0.47;100.00;101383.81;5001892;28;20042;-72
2023/03/27 04:03:08;;;;;;;18.50;3.08;;;;;;;0.51;100.00;101392.94;5003706;28;20053;-71
2023/03/27 04:05:36;;;;;;;16.02;3.13;;;;;;;0.48;100.00;101397.38;5016435;28;20073;-72
2023/03/27 04:08:05;;;;;;;17.63;3.45;;;;;;;0.50;100.00;101401.50;5020900;28;20029;-71
2023/03/27 04:10:32;;;;;;;9.43;2.35;;;;;;;0.53;100.00;101405.63;5013755;28;20040;-72
2023/03/27 04:13:01;;;;;;;16.10;2.58;;;;;;;0.49;100.00;101410.06;5034264;28;20463;-71
2023/03/27 04:15:33;;;;;;;9.02;2.25;;;;;;;0.49;100.00;101414.31;5007777;28;20480;-71
2023/03/27 04:18:31;;;;;;;20.17;2.38;;;;;;;0.51;100.00;101421.03;5008492;28;20335;-72
2023/03/27 04:20:57;;;;;;;19.15;2.38;;;;;;;0.55;100.00;101419.97;5017214;28;20120;-71
2023/03/27 04:23:29;;;;;;;10.57;2.05;;;;;;;0.61;100.00;101415.47;5001743;28;20025;-71
2023/03/27 04:25:58;;;;;;;21.80;2.60;;;;;;;0.60;100.00;101427.38;5019494;28;20038;-72
2023/03/27 04:28:33;;;;;;;14.30;2.58;;;;;;;0.63;100.00;101418.75;5017341;28;20595;-71
2023/03/27 04:31:13;;;;;;;14.80;3.47;;;;;;;0.70;100.00;101426.03;5004794;28;20055;-72
2023/03/27 04:33:58;;;;;;;16.90;2.63;;;;;;;0.76;100.00;101427.47;5015884;28;20065;-72
2023/03/27 04:36:51;;;;;;;13.43;2.85;;;;;;;0.74;100.00;101437.75;5016816;28;20030;-72
2023/03/27 04:39:21;;;;;;;16.02;4.55;;;;;;;0.78;100.00;101438.41;5004361;28;20709;-73
2023/03/27 04:41:49;;;;;;;12.10;3.88;;;;;;;0.88;100.00;101441.31;5018295;28;20049;-72
2023/03/27 04:44:16;;;;;;;11.65;3.15;;;;;;;0.93;100.00;101444.47;5001066;28;20395;-72
2023/03/27 04:46:44;;;;;;;18.13;2.50;;;;;;;1.04;100.00;101447.31;5000803;28;20034;-71
2023/03/27 04:49:11;;;;;;;16.13;2.83;;;;;;;1.05;100.00;101456.63;5001140;28;20026;-71
2023/03/27 04:51:45;;;;;;;15.60;2.75;;;;;;;0.94;100.00;101453.78;4985655;28;20072;-71
2023/03/27 04:54:13;;;;;;;6.60;2.70;;;;;;;1.06;100.00;101455.72;5017390;28;20038;-72
2023/03/27 04:56:44;;;;;;;14.25;2.90;;;;;;;1.01;100.00;101459.41;5018271;28;20033;-72
2023/03/27 04:59:10;;;;;;;16.55;2.85;;;;;;;1.04;100.00;101462.63;5034346;28;20037;-71
2023/03/27 05:01:35;;;;;;;15.55;2.97;;;;;;;1.16;100.00;101463.75;5019540;28;20108;-72
2023/03/27 05:04:07;;;;;;;17.10;3.45;;;;;;;1.06;100.00;101473.59;5024124;28;20041;-71
2023/03/27 05:06:49;;;;;;;14.07;3.10;;;;;;;0.96;100.00;101473.25;5021485;28;20068;-71
2023/03/27 05:09:16;;;;;;;16.25;3.35;;;;;;;0.99;100.00;101481.66;5016271;28;20041;-71
2023/03/27 05:11:43;;;;;;;13.02;3.90;;;;;;;1.03;100.00;101478.84;5017137;28;20080;-71
2023/03/27 05:14:09;;;;;;;15.02;3.53;;;;;;;1.06;100.00;101478.72;4986624;28;20042;-71
2023/03/27 05:16:36;;;;;;;10.27;3.00;;;;;;;1.02;100.00;101484.03;5010574;28;20419;-71
2023/03/27 05:19:04;;;;;;;9.38;2.75;;;;;;;1.10;100.00;101490.41;5005855;28;20116;-72
2023/03/27 05:21:37;;;;;;;10.70;3.72;;;;;;;1.19;100.00;101491.69;5034387;28;20045;-71
2023/03/27 05:24:08;;;;;;;11.30;3.83;;;;;;;1.23;100.00;101493.19;5005852;28;20052;-72
2023/03/27 05:26:34;;;;;;;16.25;4.60;;;;;;;1.22;100.00;101504.28;5016589;28;20577;-72
2023/03/27 05:29:00;;;;;;;12.38;2.70;;;;;;;1.21;100.00;101505.22;4999641;28;20018;-72
2023/03/27 05:31:27;;;;;;;7.30;2.30;;;;;;;1.43;100.00;101512.63;5016454;28;20034;-72
2023/03/27 05:34:01;;;;;;;16.33;2.80;;;;;;;1.42;100.00;101522.91;4980667;28;20164;-72
2023/03/27 05:36:30;;;;;;;14.40;2.65;;;;;;;1.38;100.00;101523.97;5014274;28;20041;-72
2023/03/27 05:38:57;;;;;;;9.88;3.15;;;;;;;1.43;100.00;101525.41;5017899;28;20030;-71
2023/03/27 05:41:34;;;;;;;8.50;3.10;;;;;;;1.45;100.00;101527.84;5028433;28;20558;-72
2023/03/27 05:44:03;;;;;;;8.57;2.17;;;;;;;1.40;100.00;101528.09;5014059;28;20033;-72
2023/03/27 05:46:33;;;;;;;13.90;2.65;;;;;;;1.54;100.00;101535.91;5029594;28;20236;-72
2023/03/27 05:49:05;;;;;;;9.70;2.22;;;;;;;1.54;100.00;101529.94;5018921;28;20033;-72
2023/03/27 05:51:32;;;;;;;9.93;2.30;;;;;;;1.49;100.00;101545.53;5014854;28;20531;-72
2023/03/27 05:53:58;;;;;;;14.55;2.80;;;;;;;1.49;100.00;101545.53;5019559;28;20038;-72
2023/03/27 05:56:33;;;;;;;12.05;2.40;;;;;;;1.65;100.00;101552.38;5016654;28;20071;-72
2023/03/27 05:59:01;;;;;;;11.65;2.15;;;;;;;1.62;100.00;101547.44;5024436;28;20026;-72
2023/03/27 06:01:28;;;;;;;9.57;1.98;;;;;;;1.70;100.00;101556.38;4998818;28;20392;-72
2023/03/27 06:03:56;;;;;;;7.75;2.42;;;;;;;1.83;100.00;101563.38;5035421;28;20037;-72
2023/03/27 06:06:48;;;;;;;9.02;2.92;;;;;;;1.85;100.00;101567.53;5013696;28;20122;-72
2023/03/27 06:09:14;;;;;;;8.70;1.90;;;;;;;1.98;100.00;101571.97;5006184;28;20488;-72
2023/03/27 06:11:48;;;;;;;6.47;2.05;;;;;;;2.01;100.00;101582.06;5016054;28;20442;-72
2023/03/27 06:14:13;;;;;;;8.82;2.20;;;;;;;2.08;100.00;101580.84;5003703;28;20088;-72
2023/03/27 06:16:56;;;;;;;6.65;2.15;;;;;;;2.14;100.00;101583.88;4996817;28;20034;-72
2023/03/27 06:19:43;;;;;;;8.43;2.00;;;;;;;2.09;100.00;101587.59;5019946;28;20033;-73
2023/03/27 06:22:09;;;;;;;12.05;2.13;;;;;;;2.14;100.00;101586.44;5016256;28;20557;-72
2023/03/27 06:24:36;;;;;;;9.63;2.00;;;;;;;2.19;100.00;101590.50;5019394;28;20033;-72
2023/03/27 06:27:03;;;;;;;8.52;2.63;;;;;;;2.28;100.00;101583.16;4987966;28;20072;-72
2023/03/27 06:29:32;;;;;;;13.68;2.63;;;;;;;2.32;100.00;101586.38;5021238;28;20084;-72
2023/03/27 06:32:00;;;;;;;13.27;2.67;;;;;;;2.38;100.00;101592.88;5017822;28;20393;-72
2023/03/27 06:34:30;;;;;;;9.05;2.40;;;;;;;2.33;100.00;101596.50;5016379;28;20511;-72
2023/03/27 06:37:04;;;;;;;8.13;2.33;;;;;;;2.26;100.00;101605.44;5018871;28;20076;-72
2023/03/27 06:39:36;;;;;;;6.53;2.40;;;;;;;2.45;100.00;101594.19;5039307;28;20393;-72
2023/03/27 06:42:01;;;;;;;7.82;2.00;;;;;;;2.61;100.00;101596.75;5022838;28;20131;-72
2023/03/27 06:44:36;;;;;;;11.00;3.65;;;;;;;2.71;99.42;101603.84;5021084;28;20040;-72
2023/03/27 06:47:05;;;;;;;7.47;2.38;;;;;;;2.95;99.25;101602.53;5016741;28;20080;-72
2023/03/27 06:49:46;;;;;;;8.95;2.42;;;;;;;3.33;97.08;101604.66;5017422;28;20137;-72
2023/03/27 06:52:16;;;;;;;7.60;1.63;;;;;;;3.55;94.63;101610.16;4998661;28;20318;-72
2023/03/27 06:54:43;;;;;;;6.70;1.83;;;;;;;4.15;92.54;101614.25;5018573;28;20081;-72
2023/03/27 06:57:08;;;;;;;13.82;2.25;;;;;;;4.98;88.25;101605.66;5005869;28;20488;-72
2023/03/27 06:59:55;;;;;;;7.07;1.77;;;;;;;5.70;82.85;101610.31;5022606;28;20034;-73
2023/03/27 07:02:25;;;;;;;6.60;1.33;;;;;;;6.32;78.38;101617.22;5036798;28;20037;-73
2023/03/27 07:04:53;;;;;;;7.05;1.48;;;;;;;6.78;75.70;101617.34;5020095;28;20033;-73
2023/03/27 07:07:21;;;;;;;8.02;1.48;;;;;;;7.12;73.74;101617.44;5012018;28;20037;-72
2023/03/27 07:09:48;;;;;;;7.00;1.70;;;;;;;7.60;72.57;101624.19;5002907;28;20030;-73
2023/03/27 07:12:16;;;;;;;3.20;1.00;;;;;;;7.99;68.38;101625.50;5008956;28;20025;-73
2023/03/27 07:14:44;;;;;;;5.43;1.92;;;;;;;8.13;67.61;101628.75;5006658;28;20599;-73
2023/03/27 07:17:10;;;;;;;4.50;1.20;;;;;;;8.30;65.96;101627.44;5019144;28;20972;-72
2023/03/27 07:19:47;;;;;;;3.80;1.00;;;;;;;8.35;65.84;101626.13;5010861;28;20033;-73
2023/03/27 07:22:14;;;;;;;5.15;1.42;;;;;;;8.84;64.59;101633.53;5017790;28;20506;-73
2023/03/27 07:24:40;;;;;;;6.43;1.20;;;;;;;9.12;63.12;101638.09;5001538;28;20029;-74
2023/03/27 07:27:07;;;;;;;3.60;0.98;;;;;;;9.00;61.89;101641.66;4997280;28;20073;-73
2023/03/27 07:29:35;;;;;;;3.53;1.20;;;;;;;9.39;61.56;101641.94;5023320;28;20489;-73
2023/03/27 08:21:29;;;;;;;8.80;2.67;;;;;;;7.79;68.85;101704.47;5020517;28;20175;-73
2023/03/27 09:41:17;;;;;;;13.43;1.52;;;;;;;7.51;61.44;101749.59;5024132;28;20343;-73
2023/03/27 11:22:31;;;;;;;3.92;0.50;;;;;;;5.34;78.95;101885.31;4996837;28;20068;-72
2023/03/27 11:25:20;;;;;;;1.88;0.60;;;;;;;5.03;81.39;101887.22;4976301;28;20100;-73
2023/03/27 11:28:28;;;;;;;3.67;0.80;;;;;;;4.83;86.08;101885.00;4988622;28;20803;-72
2023/03/27 12:09:19;;;;;;;2.70;0.55;;;;;;;7.22;70.64;101862.66;5012124;28;20087;-72
2023/03/27 14:32:03;;;;;;;9.50;4.28;;;;;;;6.10;75.94;101986.97;5025746;28;20557;-71
2023/03/27 14:34:33;;;;;;;4.15;1.00;;;;;;;5.26;80.01;101988.66;5015678;28;20115;-72
2023/03/27 14:37:30;;;;;;;2.88;1.00;;;;;;;4.81;82.29;101976.81;5004378;28;20042;-73
2023/03/27 14:59:17;;;;;;;19.33;9.07;;;;;;;5.76;89.66;101942.72;4995067;28;20057;-72
2023/03/27 15:01:53;;;;;;;15.80;6.43;;;;;;;5.82;90.57;101944.94;4994968;28;20153;-72
2023/03/27 15:04:49;;;;;;;10.05;5.15;;;;;;;5.97;91.86;101945.75;4986772;28;20061;-72
2023/03/27 15:30:32;;;;;;;9.00;1.25;;;;;;;5.05;87.56;101993.34;5016594;28;20261;-72
2023/03/27 15:33:03;;;;;;;6.60;1.00;;;;;;;5.08;85.53;101997.47;5019828;28;20082;-72
2023/03/27 15:35:35;;;;;;;5.88;0.88;;;;;;;5.02;82.54;101992.72;4997075;28;20496;-72
2023/03/27 15:38:05;;;;;;;3.90;1.02;;;;;;;5.04;82.22;101993.44;5002997;28;20492;-72
2023/03/27 15:40:55;;;;;;;3.63;0.80;;;;;;;5.07;80.91;101993.28;5007128;28;20131;-72
2023/03/27 16:10:06;;;;;;;3.20;0.77;;;;;;;5.45;75.05;102019.25;5013269;28;20142;-72
2023/03/27 16:16:28;;;;;;;4.32;1.25;;;;;;;5.46;75.20;102018.34;5018050;28;20106;-71
2023/03/27 16:18:58;;;;;;;4.95;1.00;;;;;;;5.51;76.84;102024.97;5018579;28;20086;-71
2023/03/27 16:21:25;;;;;;;6.07;1.40;;;;;;;5.46;74.55;102023.50;5015501;28;20048;-71
2023/03/27 16:23:50;;;;;;;8.52;1.65;;;;;;;5.46;75.45;102018.34;5030061;28;20552;-71
2023/03/27 16:26:22;;;;;;;5.53;1.52;;;;;;;5.47;75.24;102022.56;5015717;28;20038;-72
2023/03/27 16:28:48;;;;;;;8.65;1.80;;;;;;;5.32;75.51;102027.81;5005109;28;20032;-72
2023/03/27 16:31:16;;;;;;;10.32;1.40;;;;;;;5.17;75.47;102032.94;5018509;28;20038;-71
2023/03/27 16:33:44;;;;;;;5.88;1.88;;;;;;;5.22;77.71;102033.50;5020694;28;20065;-72
2023/03/27 16:36:15;;;;;;;10.30;1.80;;;;;;;5.23;77.13;102039.47;5018460;28;20045;-71
2023/03/27 16:38:42;;;;;;;10.93;2.47;;;;;;;5.29;76.65;102033.94;5016883;28;20443;-71
2023/03/27 16:41:15;;;;;;;8.00;1.85;;;;;;;5.24;75.55;102033.41;5018949;28;20029;-72
2023/03/27 16:43:42;;;;;;;5.60;1.30;;;;;;;5.25;74.81;102037.63;5036433;28;20989;-71
2023/03/27 16:46:22;;;;;;;11.30;1.58;;;;;;;5.20;73.99;102042.22;5021463;28;20535;-70
2023/03/27 16:48:52;;;;;;;10.63;1.45;;;;;;;5.25;73.97;102047.91;5021786;28;20056;-71
2023/03/27 16:51:20;;;;;;;2.85;0.80;;;;;;;5.25;73.25;102038.47;5013754;28;20060;-71
2023/03/27 16:53:46;;;;;;;4.22;0.95;;;;;;;5.19;73.82;102049.09;5004561;28;20046;-71
2023/03/27 16:56:12;;;;;;;7.90;0.90;;;;;;;5.14;72.42;102050.28;5008477;28;20057;-71
2023/03/27 16:58:38;;;;;;;5.82;1.02;;;;;;;5.15;73.36;102057.09;5034741;28;20029;-71
2023/03/27 17:01:05;;;;;;;6.25;1.13;;;;;;;5.14;73.82;102069.13;5018532;28;20163;-71
2023/03/27 17:03:31;;;;;;;6.85;2.10;;;;;;;5.00;73.58;102066.53;5015922;28;20113;-72
2023/03/27 17:06:01;;;;;;;8.25;2.25;;;;;;;4.97;73.58;102074.41;5017545;28;20060;-71
2023/03/27 17:08:29;;;;;;;4.35;2.13;;;;;;;4.98;74.62;102083.78;5017860;28;20052;-71
2023/03/27 17:11:00;;;;;;;7.32;2.25;;;;;;;4.87;76.08;102087.78;5015656;28;20495;-72
2023/03/27 17:13:26;;;;;;;6.72;1.10;;;;;;;4.70;73.33;102080.22;5031330;28;20084;-70
2023/03/27 17:15:51;;;;;;;1.67;0.85;;;;;;;4.62;72.93;102087.53;5015826;28;20494;-71
2023/03/27 17:18:17;;;;;;;5.57;0.90;;;;;;;4.68;73.56;102087.19;5018178;28;20033;-71
2023/03/27 17:20:42;;;;;;;3.97;1.00;;;;;;;4.62;71.04;102087.53;5014013;28;20044;-71
2023/03/27 17:23:10;;;;;;;3.30;0.60;;;;;;;4.60;68.95;102097.88;5031347;28;20037;-71
2023/03/27 17:25:35;;;;;;;5.95;1.98;;;;;;;4.67;69.49;102090.66;5013160;28;20076;-71
2023/03/27 17:28:01;;;;;;;5.45;1.48;;;;;;;4.66;68.69;102096.72;4999965;28;20046;-72
2023/03/27 17:30:26;;;;;;;6.38;1.75;;;;;;;4.74;68.67;102106.56;5017847;28;20042;-71
2023/03/27 17:32:52;;;;;;;5.78;1.30;;;;;;;4.65;68.37;102107.91;5018971;28;20033;-71
2023/03/27 17:35:17;;;;;;;3.60;1.02;;;;;;;4.72;68.05;102104.06;5014224;28;20381;-71
2023/03/27 17:37:43;;;;;;;1.30;0.60;;;;;;;4.63;68.74;102115.72;5033913;28;20057;-71
2023/03/27 17:40:09;;;;;;;4.93;1.40;;;;;;;4.56;70.12;102116.09;5015484;28;20053;-71
2023/03/27 17:42:35;;;;;;;4.15;1.25;;;;;;;4.63;69.18;102120.84;5017612;28;20030;-71
2023/03/27 17:45:01;;;;;;;4.18;1.40;;;;;;;4.48;69.89;102117.38;5018605;28;20419;-72
2023/03/27 17:47:27;;;;;;;2.47;1.30;;;;;;;4.49;69.97;102129.28;5019156;28;20034;-71
2023/03/27 17:49:53;;;;;;;5.90;1.40;;;;;;;4.55;70.36;102124.75;5004252;28;20059;-72
2023/03/27 17:52:21;;;;;;;6.13;1.05;;;;;;;4.29;72.13;102139.81;5016156;28;20033;-71
2023/03/27 17:54:47;;;;;;;4.88;1.33;;;;;;;4.22;72.64;102138.47;5017288;28;20760;-71
2023/03/27 17:57:12;;;;;;;3.13;1.20;;;;;;;4.20;72.90;102138.59;5019979;28;20030;-71
2023/03/27 17:59:38;;;;;;;3.03;1.08;;;;;;;4.33;73.82;102145.63;5019389;28;20511;-71
2023/03/27 18:02:04;;;;;;;11.82;1.95;;;;;;;4.28;74.60;102139.00;5013551;28;20389;-71
2023/03/27 18:04:30;;;;;;;9.30;1.95;;;;;;;4.26;75.29;102137.44;5005990;28;20033;-71
2023/03/27 18:06:56;;;;;;;7.70;1.33;;;;;;;4.26;75.51;102134.88;5014531;28;20038;-71
2023/03/27 18:09:22;;;;;;;3.65;1.58;;;;;;;4.36;76.40;102133.44;5015529;28;20064;-71
2023/03/27 18:11:47;;;;;;;7.97;1.30;;;;;;;4.34;76.29;102142.16;5016635;28;20508;-71
2023/03/27 18:14:13;;;;;;;6.07;2.17;;;;;;;4.19;77.27;102139.47;5029842;28;20037;-71
2023/03/27 18:16:39;;;;;;;6.70;2.35;;;;;;;4.16;77.80;102146.53;5015437;28;20494;-71
2023/03/27 18:19:04;;;;;;;6.47;2.42;;;;;;;4.19;78.38;102154.06;5003908;28;20032;-71
2023/03/27 18:21:30;;;;;;;16.02;3.75;;;;;;;4.17;77.96;102154.16;5015432;28;20038;-71
2023/03/27 18:23:58;;;;;;;6.90;1.52;;;;;;;4.17;78.29;102149.00;5025244;28;20021;-71
2023/03/27 18:26:24;;;;;;;5.25;2.35;;;;;;;4.11;79.19;102154.47;5017350;28;20077;-71
2023/03/27 18:28:51;;;;;;;9.13;3.03;;;;;;;4.07;79.17;102158.94;5023620;28;20030;-71
2023/03/27 18:31:17;;;;;;;18.08;4.85;;;;;;;3.96;79.40;102160.41;5016674;28;20124;-71
2023/03/27 18:33:43;;;;;;;16.00;5.13;;;;;;;3.94;79.63;102165.63;5035895;28;20036;-71
2023/03/27 18:36:10;;;;;;;8.77;3.42;;;;;;;3.82;80.05;102167.06;5015569;28;20054;-71
2023/03/27 18:38:38;;;;;;;20.75;7.60;;;;;;;3.85;80.22;102174.63;5022116;28;20037;-71
2023/03/27 18:41:04;;;;;;;18.02;7.15;;;;;;;3.75;80.99;102172.59;5015226;28;20522;-71
2023/03/27 18:43:30;;;;;;;9.82;2.58;;;;;;;3.74;80.71;102173.50;5017689;28;20037;-71
2023/03/27 18:45:58;;;;;;;7.82;2.40;;;;;;;3.68;80.97;102174.66;5020623;28;20065;-71
2023/03/27 18:48:24;;;;;;;10.70;4.07;;;;;;;3.79;80.64;102177.50;5034365;28;20113;-71
2023/03/27 18:51:05;;;;;;;12.40;4.65;;;;;;;3.75;80.29;102175.16;5016579;28;20057;-71
2023/03/27 18:53:30;;;;;;;17.98;8.10;;;;;;;3.73;81.19;102182.09;5017563;28;20381;-71
2023/03/27 18:55:59;;;;;;;16.15;6.90;;;;;;;3.67;80.87;102184.09;5020009;28;20053;-71
2023/03/27 18:58:27;;;;;;;14.80;5.35;;;;;;;3.69;81.52;102182.28;5023328;28;20295;-71
2023/03/27 19:00:53;;;;;;;18.00;9.27;;;;;;;3.60;81.83;102181.88;5019083;28;20037;-71
2023/03/27 19:03:22;;;;;;;28.70;14.57;;;;;;;3.56;81.95;102186.38;5016638;28;20048;-71
2023/03/27 19:05:49;;;;;;;16.92;7.53;;;;;;;3.48;81.92;102185.91;5029325;28;20045;-71
2023/03/27 19:08:15;;;;;;;20.02;7.95;;;;;;;3.51;82.54;102188.31;5036180;28;20033;-71
2023/03/27 19:10:42;;;;;;;14.30;4.80;;;;;;;3.34;82.86;102189.16;5016938;28;20050;-71
2023/03/27 19:13:20;;;;;;;15.57;7.03;;;;;;;3.36;82.59;102200.16;5018892;28;20033;-71
2023/03/27 19:16:04;;;;;;;13.13;6.68;;;;;;;3.36;82.67;102204.47;5016241;28;20115;-71
2023/03/27 19:18:56;;;;;;;16.23;5.50;;;;;;;3.40;82.56;102198.28;4987241;28;20033;-71
2023/03/27 19:21:40;;;;;;;13.63;3.20;;;;;;;3.30;82.64;102208.16;5015904;28;20068;-71
2023/03/27 19:24:15;;;;;;;12.25;3.05;;;;;;;3.32;82.53;102219.16;5001246;28;20025;-71
2023/03/27 19:26:43;;;;;;;9.85;2.95;;;;;;;3.35;82.04;102215.63;5032723;28;20159;-71
2023/03/27 19:29:10;;;;;;;10.68;1.77;;;;;;;3.38;81.78;102218.88;5022023;28;20050;-71
2023/03/27 19:31:37;;;;;;;9.15;1.55;;;;;;;3.33;81.42;102217.44;5002891;28;20119;-71
2023/03/27 19:34:03;;;;;;;11.02;1.90;;;;;;;3.30;82.04;102214.13;5016001;28;20058;-71
2023/03/27 19:36:30;;;;;;;8.52;2.13;;;;;;;3.17;82.14;102214.78;5021649;28;20056;-72
2023/03/27 19:38:55;;;;;;;4.57;1.52;;;;;;;3.22;82.62;102217.94;5020262;28;20044;-72
2023/03/27 19:41:23;;;;;;;8.82;1.83;;;;;;;3.15;82.49;102208.91;5014306;28;20045;-72
2023/03/27 19:43:48;;;;;;;8.52;2.03;;;;;;;3.05;82.46;102211.91;5032186;28;20116;-72